sensor_id;sensor_type;location;lat;lon;timestamp;temperature;humidity
21207;DHT22;10761;48.532;8.026;2023-02-18T00:00:39;12.60;99.90
21207;DHT22;10761;48.532;8.026;2023-02-18T00:03:05;12.60;99.90
21207;DHT22;10761;48.532;8.026;2023-02-18T00:05:30;12.60;99.90
21207;DHT22;10761;48.532;8.026;2023-02-18T00:07:55;12.70;99.90
21207;DHT22;10761;48.532;8.026;2023-02-18T00:10:21;12.70;99.90
21207;DHT22;10761;48.532;8.026;2023-02-18T00:12:46;12.60;99.90
21207;DHT22;10761;48.532;8.026;2023-02-18T00:15:12;12.60;99.90
21207;DHT22;10761;48.532;8.026;2023-02-18T00:17:37;12.60;99.90
21207;DHT22;10761;48.532;8.026;2023-02-18T00:20:04;12.60;99.90
21207;DHT22;10761;48.532;8.026;2023-02-18T00:22:30;12.50;99.90
21207;DHT22;10761;48.532;8.026;2023-02-18T00:24:55;12.50;99.90
21207;DHT22;10761;48.532;8.026;2023-02-18T00:27:21;12.50;99.90
21207;DHT22;10761;48.532;8.026;2023-02-18T00:29:46;12.50;99.90
21207;DHT22;10761;48.532;8.026;2023-02-18T00:32:11;12.50;99.90
21207;DHT22;10761;48.532;8.026;2023-02-18T00:34:37;12.50;99.90
21207;DHT22;10761;48.532;8.026;2023-02-18T00:37:03;12.50;99.90
21207;DHT22;10761;48.532;8.026;2023-02-18T00:39:28;12.40;99.90
21207;DHT22;10761;48.532;8.026;2023-02-18T00:41:54;12.50;99.90
21207;DHT22;10761;48.532;8.026;2023-02-18T00:44:19;12.50;99.90
21207;DHT22;10761;48.532;8.026;2023-02-18T00:46:45;12.50;99.90
21207;DHT22;10761;48.532;8.026;2023-02-18T00:49:12;12.50;99.90
21207;DHT22;10761;48.532;8.026;2023-02-18T00:51:37;12.60;99.90
21207;DHT22;10761;48.532;8.026;2023-02-18T00:54:03;12.50;99.90
21207;DHT22;10761;48.532;8.026;2023-02-18T00:56:29;12.50;99.90
21207;DHT22;10761;48.532;8.026;2023-02-18T00:58:54;12.50;99.90
21207;DHT22;10761;48.532;8.026;2023-02-18T01:01:20;12.50;99.90
21207;DHT22;10761;48.532;8.026;2023-02-18T01:03:45;12.50;99.90
21207;DHT22;10761;48.532;8.026;2023-02-18T01:06:11;12.50;99.90
21207;DHT22;10761;48.532;8.026;2023-02-18T01:08:37;12.40;99.90
21207;DHT22;10761;48.532;8.026;2023-02-18T01:11:03;12.30;99.90
21207;DHT22;10761;48.532;8.026;2023-02-18T01:13:29;12.30;99.90
21207;DHT22;10761;48.532;8.026;2023-02-18T01:15:54;12.30;99.90
21207;DHT22;10761;48.532;8.026;2023-02-18T01:18:20;12.30;99.90
21207;DHT22;10761;48.532;8.026;2023-02-18T01:20:45;12.30;99.90
21207;DHT22;10761;48.532;8.026;2023-02-18T01:23:11;12.40;99.90
21207;DHT22;10761;48.532;8.026;2023-02-18T01:25:36;12.40;99.90
21207;DHT22;10761;48.532;8.026;2023-02-18T01:28:02;12.30;99.90
21207;DHT22;10761;48.532;8.026;2023-02-18T01:30:28;12.30;99.90
21207;DHT22;10761;48.532;8.026;2023-02-18T01:32:54;12.20;99.90
21207;DHT22;10761;48.532;8.026;2023-02-18T01:35:20;12.20;99.90
21207;DHT22;10761;48.532;8.026;2023-02-18T01:37:46;12.10;99.90
21207;DHT22;10761;48.532;8.026;2023-02-18T01:40:12;12.10;99.90
21207;DHT22;10761;48.532;8.026;2023-02-18T01:42:38;12.10;99.90
21207;DHT22;10761;48.532;8.026;2023-02-18T01:47:48;12.00;99.90
21207;DHT22;10761;48.532;8.026;2023-02-18T01:50:13;12.00;99.90
21207;DHT22;10761;48.532;8.026;2023-02-18T01:52:38;12.00;99.90
21207;DHT22;10761;48.532;8.026;2023-02-18T01:55:04;12.00;99.90
21207;DHT22;10761;48.532;8.026;2023-02-18T01:57:30;11.90;99.90
21207;DHT22;10761;48.532;8.026;2023-02-18T02:00:03;11.90;99.90
21207;DHT22;10761;48.532;8.026;2023-02-18T02:02:30;11.90;99.90
21207;DHT22;10761;48.532;8.026;2023-02-18T02:04:56;11.80;99.90
21207;DHT22;10761;48.532;8.026;2023-02-18T02:07:22;11.80;99.90
21207;DHT22;10761;48.532;8.026;2023-02-18T02:09:49;11.80;99.90
21207;DHT22;10761;48.532;8.026;2023-02-18T02:14:45;11.90;99.90
21207;DHT22;10761;48.532;8.026;2023-02-18T02:22:35;11.80;99.90
21207;DHT22;10761;48.532;8.026;2023-02-18T02:25:11;11.80;99.90
21207;DHT22;10761;48.532;8.026;2023-02-18T02:30:35;11.80;99.90
21207;DHT22;10761;48.532;8.026;2023-02-18T02:33:19;11.80;99.90
21207;DHT22;10761;48.532;8.026;2023-02-18T02:36:32;11.90;99.90
21207;DHT22;10761;48.532;8.026;2023-02-18T02:44:06;11.80;99.90
21207;DHT22;10761;48.532;8.026;2023-02-18T02:46:36;11.90;99.90
21207;DHT22;10761;48.532;8.026;2023-02-18T02:51:43;11.90;99.90
21207;DHT22;10761;48.532;8.026;2023-02-18T02:54:21;11.90;99.90
21207;DHT22;10761;48.532;8.026;2023-02-18T02:56:47;11.90;99.90
21207;DHT22;10761;48.532;8.026;2023-02-18T02:59:15;11.80;99.90
21207;DHT22;10761;48.532;8.026;2023-02-18T03:01:53;11.90;99.90
21207;DHT22;10761;48.532;8.026;2023-02-18T03:06:56;11.90;99.90
21207;DHT22;10761;48.532;8.026;2023-02-18T03:09:32;11.90;99.90
21207;DHT22;10761;48.532;8.026;2023-02-18T03:16:56;11.80;99.90
21207;DHT22;10761;48.532;8.026;2023-02-18T03:19:24;11.90;99.90
21207;DHT22;10761;48.532;8.026;2023-02-18T03:22:09;11.90;99.90
21207;DHT22;10761;48.532;8.026;2023-02-18T03:24:39;11.80;99.90
21207;DHT22;10761;48.532;8.026;2023-02-18T03:27:11;11.70;99.90
21207;DHT22;10761;48.532;8.026;2023-02-18T03:29:38;11.70;99.90
21207;DHT22;10761;48.532;8.026;2023-02-18T03:32:05;11.70;99.90
21207;DHT22;10761;48.532;8.026;2023-02-18T03:34:34;11.70;99.90
21207;DHT22;10761;48.532;8.026;2023-02-18T03:37:01;11.70;99.90
21207;DHT22;10761;48.532;8.026;2023-02-18T03:39:28;11.70;99.90
21207;DHT22;10761;48.532;8.026;2023-02-18T03:41:53;11.60;99.90
21207;DHT22;10761;48.532;8.026;2023-02-18T03:44:19;11.60;99.90
21207;DHT22;10761;48.532;8.026;2023-02-18T03:46:44;11.60;99.90
21207;DHT22;10761;48.532;8.026;2023-02-18T03:49:11;11.60;99.90
21207;DHT22;10761;48.532;8.026;2023-02-18T03:51:37;11.80;99.90
21207;DHT22;10761;48.532;8.026;2023-02-18T03:54:02;11.60;99.90
21207;DHT22;10761;48.532;8.026;2023-02-18T03:56:28;11.60;99.90
21207;DHT22;10761;48.532;8.026;2023-02-18T03:58:53;11.70;99.90
21207;DHT22;10761;48.532;8.026;2023-02-18T04:01:19;11.70;99.90
21207;DHT22;10761;48.532;8.026;2023-02-18T04:03:44;11.70;99.90
21207;DHT22;10761;48.532;8.026;2023-02-18T04:06:10;11.70;99.90
21207;DHT22;10761;48.532;8.026;2023-02-18T04:08:35;11.70;99.90
21207;DHT22;10761;48.532;8.026;2023-02-18T04:11:01;11.60;99.90
21207;DHT22;10761;48.532;8.026;2023-02-18T04:13:26;11.60;99.90
21207;DHT22;10761;48.532;8.026;2023-02-18T04:15:52;11.60;99.90
21207;DHT22;10761;48.532;8.026;2023-02-18T04:18:17;11.60;99.90
21207;DHT22;10761;48.532;8.026;2023-02-18T04:20:43;11.50;99.90
21207;DHT22;10761;48.532;8.026;2023-02-18T04:23:10;11.50;99.90
21207;DHT22;10761;48.532;8.026;2023-02-18T04:25:36;11.50;99.90
21207;DHT22;10761;48.532;8.026;2023-02-18T04:28:01;11.50;99.90
21207;DHT22;10761;48.532;8.026;2023-02-18T04:30:27;11.50;99.90
21207;DHT22;10761;48.532;8.026;2023-02-18T04:32:52;11.50;99.90
21207;DHT22;10761;48.532;8.026;2023-02-18T04:35:18;11.50;99.90
21207;DHT22;10761;48.532;8.026;2023-02-18T04:37:43;11.50;99.90
21207;DHT22;10761;48.532;8.026;2023-02-18T04:40:09;11.50;99.90
21207;DHT22;10761;48.532;8.026;2023-02-18T04:42:35;11.40;99.90
21207;DHT22;10761;48.532;8.026;2023-02-18T04:45:00;11.40;99.90
21207;DHT22;10761;48.532;8.026;2023-02-18T04:47:26;11.50;99.90
21207;DHT22;10761;48.532;8.026;2023-02-18T04:49:51;11.50;99.90
21207;DHT22;10761;48.532;8.026;2023-02-18T04:52:17;11.50;99.90
21207;DHT22;10761;48.532;8.026;2023-02-18T04:54:42;11.50;99.90
21207;DHT22;10761;48.532;8.026;2023-02-18T04:57:08;11.50;99.90
21207;DHT22;10761;48.532;8.026;2023-02-18T04:59:33;11.50;99.90
21207;DHT22;10761;48.532;8.026;2023-02-18T05:01:59;11.50;99.90
21207;DHT22;10761;48.532;8.026;2023-02-18T05:04:24;11.60;99.90
21207;DHT22;10761;48.532;8.026;2023-02-18T05:06:50;11.60;99.90
21207;DHT22;10761;48.532;8.026;2023-02-18T05:09:15;11.60;99.90
21207;DHT22;10761;48.532;8.026;2023-02-18T05:11:41;11.60;99.90
21207;DHT22;10761;48.532;8.026;2023-02-18T05:14:06;11.70;99.90
21207;DHT22;10761;48.532;8.026;2023-02-18T05:16:32;11.70;99.90
21207;DHT22;10761;48.532;8.026;2023-02-18T05:18:57;11.70;99.90
21207;DHT22;10761;48.532;8.026;2023-02-18T05:21:23;11.80;99.90
21207;DHT22;10761;48.532;8.026;2023-02-18T05:23:48;11.80;99.90
21207;DHT22;10761;48.532;8.026;2023-02-18T05:26:14;11.70;99.90
21207;DHT22;10761;48.532;8.026;2023-02-18T05:28:39;11.80;99.90
21207;DHT22;10761;48.532;8.026;2023-02-18T05:31:04;11.80;99.90
21207;DHT22;10761;48.532;8.026;2023-02-18T05:33:30;11.80;99.90
21207;DHT22;10761;48.532;8.026;2023-02-18T05:35:55;11.80;99.90
21207;DHT22;10761;48.532;8.026;2023-02-18T05:38:21;11.80;99.90
21207;DHT22;10761;48.532;8.026;2023-02-18T05:40:46;11.80;99.90
21207;DHT22;10761;48.532;8.026;2023-02-18T05:43:12;11.70;99.90
21207;DHT22;10761;48.532;8.026;2023-02-18T05:45:38;11.80;99.90
21207;DHT22;10761;48.532;8.026;2023-02-18T05:48:03;11.80;99.90
21207;DHT22;10761;48.532;8.026;2023-02-18T05:50:29;11.80;99.90
21207;DHT22;10761;48.532;8.026;2023-02-18T05:52:54;11.90;99.90
21207;DHT22;10761;48.532;8.026;2023-02-18T05:55:20;11.90;99.90
21207;DHT22;10761;48.532;8.026;2023-02-18T05:57:45;11.80;99.90
21207;DHT22;10761;48.532;8.026;2023-02-18T06:00:11;11.80;99.90
21207;DHT22;10761;48.532;8.026;2023-02-18T06:02:36;11.90;99.90
21207;DHT22;10761;48.532;8.026;2023-02-18T06:05:02;12.00;99.90
21207;DHT22;10761;48.532;8.026;2023-02-18T06:07:28;12.00;99.90
21207;DHT22;10761;48.532;8.026;2023-02-18T06:09:54;12.00;99.90
21207;DHT22;10761;48.532;8.026;2023-02-18T06:12:19;12.00;99.90
21207;DHT22;10761;48.532;8.026;2023-02-18T06:14:45;12.00;99.90
21207;DHT22;10761;48.532;8.026;2023-02-18T06:17:10;12.00;99.90
21207;DHT22;10761;48.532;8.026;2023-02-18T06:19:36;12.00;99.90
21207;DHT22;10761;48.532;8.026;2023-02-18T06:22:02;12.10;99.90
21207;DHT22;10761;48.532;8.026;2023-02-18T06:24:27;12.10;99.90
21207;DHT22;10761;48.532;8.026;2023-02-18T06:26:52;12.10;99.90
21207;DHT22;10761;48.532;8.026;2023-02-18T06:29:18;12.20;99.90
21207;DHT22;10761;48.532;8.026;2023-02-18T06:31:43;12.10;99.90
21207;DHT22;10761;48.532;8.026;2023-02-18T06:34:09;12.20;99.90
21207;DHT22;10761;48.532;8.026;2023-02-18T06:36:34;12.20;99.90
21207;DHT22;10761;48.532;8.026;2023-02-18T06:39:01;12.20;99.90
21207;DHT22;10761;48.532;8.026;2023-02-18T06:41:27;12.20;99.90
21207;DHT22;10761;48.532;8.026;2023-02-18T06:43:52;12.20;99.90
21207;DHT22;10761;48.532;8.026;2023-02-18T06:46:18;12.20;99.90
21207;DHT22;10761;48.532;8.026;2023-02-18T06:48:43;12.30;99.90
21207;DHT22;10761;48.532;8.026;2023-02-18T06:51:08;12.30;99.90
21207;DHT22;10761;48.532;8.026;2023-02-18T06:53:34;12.20;99.90
21207;DHT22;10761;48.532;8.026;2023-02-18T06:55:59;12.30;99.90
21207;DHT22;10761;48.532;8.026;2023-02-18T06:58:25;12.20;99.90
21207;DHT22;10761;48.532;8.026;2023-02-18T07:00:50;12.30;99.90
21207;DHT22;10761;48.532;8.026;2023-02-18T07:03:16;12.30;99.90
21207;DHT22;10761;48.532;8.026;2023-02-18T07:05:41;12.40;99.90
21207;DHT22;10761;48.532;8.026;2023-02-18T07:08:07;12.30;99.90
21207;DHT22;10761;48.532;8.026;2023-02-18T07:10:33;12.30;99.90
21207;DHT22;10761;48.532;8.026;2023-02-18T07:12:58;12.40;99.90
21207;DHT22;10761;48.532;8.026;2023-02-18T07:15:24;12.40;99.90
21207;DHT22;10761;48.532;8.026;2023-02-18T07:17:51;12.30;99.90
21207;DHT22;10761;48.532;8.026;2023-02-18T07:20:17;12.30;99.90
21207;DHT22;10761;48.532;8.026;2023-02-18T07:22:43;12.30;99.90
21207;DHT22;10761;48.532;8.026;2023-02-18T07:25:08;12.30;99.90
21207;DHT22;10761;48.532;8.026;2023-02-18T07:27:34;12.30;99.90
21207;DHT22;10761;48.532;8.026;2023-02-18T07:29:59;12.40;99.90
21207;DHT22;10761;48.532;8.026;2023-02-18T07:32:25;12.30;99.90
21207;DHT22;10761;48.532;8.026;2023-02-18T07:34:51;12.30;99.90
21207;DHT22;10761;48.532;8.026;2023-02-18T07:37:18;12.20;99.90
21207;DHT22;10761;48.532;8.026;2023-02-18T07:39:43;12.20;99.90
21207;DHT22;10761;48.532;8.026;2023-02-18T07:42:12;12.10;99.90
21207;DHT22;10761;48.532;8.026;2023-02-18T07:44:38;12.10;99.90
21207;DHT22;10761;48.532;8.026;2023-02-18T07:47:04;12.00;99.90
21207;DHT22;10761;48.532;8.026;2023-02-18T07:49:30;12.00;99.90
21207;DHT22;10761;48.532;8.026;2023-02-18T07:51:56;11.90;99.90
21207;DHT22;10761;48.532;8.026;2023-02-18T07:54:22;12.00;99.90
21207;DHT22;10761;48.532;8.026;2023-02-18T07:56:47;12.00;99.90
21207;DHT22;10761;48.532;8.026;2023-02-18T07:59:13;12.00;99.90
21207;DHT22;10761;48.532;8.026;2023-02-18T08:01:39;12.00;99.90
21207;DHT22;10761;48.532;8.026;2023-02-18T08:04:04;12.10;99.90
21207;DHT22;10761;48.532;8.026;2023-02-18T08:06:32;12.10;99.90
21207;DHT22;10761;48.532;8.026;2023-02-18T08:08:58;12.20;99.90
21207;DHT22;10761;48.532;8.026;2023-02-18T08:11:23;12.20;99.90
21207;DHT22;10761;48.532;8.026;2023-02-18T08:13:49;12.20;99.90
21207;DHT22;10761;48.532;8.026;2023-02-18T08:16:15;12.30;99.90
21207;DHT22;10761;48.532;8.026;2023-02-18T08:18:41;12.30;99.90
21207;DHT22;10761;48.532;8.026;2023-02-18T08:21:06;12.20;99.90
21207;DHT22;10761;48.532;8.026;2023-02-18T08:23:32;12.20;99.90
21207;DHT22;10761;48.532;8.026;2023-02-18T08:25:57;12.30;99.90
21207;DHT22;10761;48.532;8.026;2023-02-18T08:28:23;12.30;99.90
21207;DHT22;10761;48.532;8.026;2023-02-18T08:30:49;12.30;99.90
21207;DHT22;10761;48.532;8.026;2023-02-18T08:33:15;12.30;99.90
21207;DHT22;10761;48.532;8.026;2023-02-18T08:35:41;12.40;99.90
21207;DHT22;10761;48.532;8.026;2023-02-18T08:38:07;12.30;99.90
21207;DHT22;10761;48.532;8.026;2023-02-18T08:40:33;12.30;99.90
21207;DHT22;10761;48.532;8.026;2023-02-18T08:42:58;12.30;99.90
21207;DHT22;10761;48.532;8.026;2023-02-18T08:45:24;12.30;99.90
21207;DHT22;10761;48.532;8.026;2023-02-18T08:47:49;12.40;99.90
21207;DHT22;10761;48.532;8.026;2023-02-18T08:50:14;12.30;99.90
21207;DHT22;10761;48.532;8.026;2023-02-18T08:52:40;12.30;99.90
21207;DHT22;10761;48.532;8.026;2023-02-18T08:55:06;12.30;99.90
21207;DHT22;10761;48.532;8.026;2023-02-18T08:57:33;12.20;99.90
21207;DHT22;10761;48.532;8.026;2023-02-18T08:59:59;12.20;99.90
21207;DHT22;10761;48.532;8.026;2023-02-18T09:02:24;12.30;99.90
21207;DHT22;10761;48.532;8.026;2023-02-18T09:04:50;12.30;99.90
21207;DHT22;10761;48.532;8.026;2023-02-18T09:07:15;12.20;99.90
21207;DHT22;10761;48.532;8.026;2023-02-18T09:09:41;12.30;99.90
21207;DHT22;10761;48.532;8.026;2023-02-18T09:12:07;12.20;99.90
21207;DHT22;10761;48.532;8.026;2023-02-18T09:14:32;12.20;99.90
21207;DHT22;10761;48.532;8.026;2023-02-18T09:16:58;12.20;99.90
21207;DHT22;10761;48.532;8.026;2023-02-18T09:19:23;12.30;99.90
21207;DHT22;10761;48.532;8.026;2023-02-18T09:21:49;12.30;99.90
21207;DHT22;10761;48.532;8.026;2023-02-18T09:24:17;12.40;99.90
21207;DHT22;10761;48.532;8.026;2023-02-18T09:26:43;12.50;99.90
21207;DHT22;10761;48.532;8.026;2023-02-18T09:29:08;12.50;99.90
21207;DHT22;10761;48.532;8.026;2023-02-18T09:31:34;12.60;99.90
21207;DHT22;10761;48.532;8.026;2023-02-18T09:34:01;12.60;99.90
21207;DHT22;10761;48.532;8.026;2023-02-18T09:36:27;12.70;99.90
21207;DHT22;10761;48.532;8.026;2023-02-18T09:38:52;12.70;99.90
21207;DHT22;10761;48.532;8.026;2023-02-18T09:43:44;12.70;99.90
21207;DHT22;10761;48.532;8.026;2023-02-18T09:46:16;12.80;99.90
21207;DHT22;10761;48.532;8.026;2023-02-18T09:48:42;12.80;99.90
21207;DHT22;10761;48.532;8.026;2023-02-18T09:51:10;12.80;99.90
21207;DHT22;10761;48.532;8.026;2023-02-18T09:53:36;12.80;99.90
21207;DHT22;10761;48.532;8.026;2023-02-18T09:56:01;12.70;99.90
21207;DHT22;10761;48.532;8.026;2023-02-18T09:58:28;12.80;99.90
21207;DHT22;10761;48.532;8.026;2023-02-18T10:00:58;12.90;99.90
21207;DHT22;10761;48.532;8.026;2023-02-18T10:03:27;12.90;99.90
21207;DHT22;10761;48.532;8.026;2023-02-18T10:06:00;12.90;99.90
21207;DHT22;10761;48.532;8.026;2023-02-18T10:08:32;12.90;99.90
21207;DHT22;10761;48.532;8.026;2023-02-18T10:10:59;13.00;99.90
21207;DHT22;10761;48.532;8.026;2023-02-18T10:13:26;13.00;99.90
21207;DHT22;10761;48.532;8.026;2023-02-18T10:15:52;13.00;99.90
21207;DHT22;10761;48.532;8.026;2023-02-18T10:18:23;13.10;99.90
21207;DHT22;10761;48.532;8.026;2023-02-18T10:20:50;13.10;99.90
21207;DHT22;10761;48.532;8.026;2023-02-18T10:23:16;13.10;99.90
21207;DHT22;10761;48.532;8.026;2023-02-18T10:25:44;13.20;99.90
21207;DHT22;10761;48.532;8.026;2023-02-18T10:28:11;13.20;99.90
21207;DHT22;10761;48.532;8.026;2023-02-18T10:30:37;13.20;99.90
21207;DHT22;10761;48.532;8.026;2023-02-18T10:33:14;13.20;99.90
21207;DHT22;10761;48.532;8.026;2023-02-18T10:35:48;13.20;99.90
21207;DHT22;10761;48.532;8.026;2023-02-18T10:38:32;13.10;99.90
21207;DHT22;10761;48.532;8.026;2023-02-18T10:41:17;13.10;99.90
21207;DHT22;10761;48.532;8.026;2023-02-18T10:48:40;13.10;99.90
21207;DHT22;10761;48.532;8.026;2023-02-18T10:51:13;13.20;99.90
21207;DHT22;10761;48.532;8.026;2023-02-18T10:53:39;13.20;99.90
21207;DHT22;10761;48.532;8.026;2023-02-18T10:56:06;13.30;99.90
21207;DHT22;10761;48.532;8.026;2023-02-18T10:58:35;13.30;99.90
21207;DHT22;10761;48.532;8.026;2023-02-18T11:01:03;13.40;99.90
21207;DHT22;10761;48.532;8.026;2023-02-18T11:03:40;13.40;99.90
21207;DHT22;10761;48.532;8.026;2023-02-18T11:06:06;13.50;99.90
21207;DHT22;10761;48.532;8.026;2023-02-18T11:08:41;13.50;99.90
21207;DHT22;10761;48.532;8.026;2023-02-18T11:11:08;13.60;99.90
21207;DHT22;10761;48.532;8.026;2023-02-18T11:13:36;13.60;99.90
21207;DHT22;10761;48.532;8.026;2023-02-18T11:16:04;13.60;99.90
21207;DHT22;10761;48.532;8.026;2023-02-18T11:23:49;13.50;99.90
21207;DHT22;10761;48.532;8.026;2023-02-18T11:26:16;13.60;99.90
21207;DHT22;10761;48.532;8.026;2023-02-18T11:28:47;13.70;99.90
21207;DHT22;10761;48.532;8.026;2023-02-18T11:31:37;13.60;99.90
21207;DHT22;10761;48.532;8.026;2023-02-18T11:33:59;13.60;99.90
21207;DHT22;10761;48.532;8.026;2023-02-18T11:36:29;13.60;99.90
21207;DHT22;10761;48.532;8.026;2023-02-18T11:38:59;13.60;99.90
21207;DHT22;10761;48.532;8.026;2023-02-18T11:41:36;13.70;99.90
21207;DHT22;10761;48.532;8.026;2023-02-18T11:44:03;13.70;99.90
21207;DHT22;10761;48.532;8.026;2023-02-18T11:46:30;13.80;99.90
21207;DHT22;10761;48.532;8.026;2023-02-18T11:48:56;13.80;99.90
21207;DHT22;10761;48.532;8.026;2023-02-18T11:51:34;13.90;99.90
21207;DHT22;10761;48.532;8.026;2023-02-18T11:54:04;13.90;99.90
21207;DHT22;10761;48.532;8.026;2023-02-18T11:56:34;13.80;99.90
21207;DHT22;10761;48.532;8.026;2023-02-18T11:59:01;13.80;99.90
21207;DHT22;10761;48.532;8.026;2023-02-18T12:01:43;13.90;99.90
21207;DHT22;10761;48.532;8.026;2023-02-18T12:04:13;13.90;99.90
21207;DHT22;10761;48.532;8.026;2023-02-18T12:09:28;14.00;99.90
21207;DHT22;10761;48.532;8.026;2023-02-18T12:11:57;13.90;99.90
21207;DHT22;10761;48.532;8.026;2023-02-18T12:14:23;14.00;99.90
21207;DHT22;10761;48.532;8.026;2023-02-18T12:16:55;13.90;99.90
21207;DHT22;10761;48.532;8.026;2023-02-18T12:27:23;13.90;99.90
21207;DHT22;10761;48.532;8.026;2023-02-18T12:32:46;13.90;99.90
21207;DHT22;10761;48.532;8.026;2023-02-18T12:40:20;14.00;99.90
21207;DHT22;10761;48.532;8.026;2023-02-18T12:45:30;14.00;99.90
21207;DHT22;10761;48.532;8.026;2023-02-18T13:00:34;14.00;99.90
21207;DHT22;10761;48.532;8.026;2023-02-18T13:03:10;14.00;99.90
21207;DHT22;10761;48.532;8.026;2023-02-18T13:13:25;14.00;99.90
21207;DHT22;10761;48.532;8.026;2023-02-18T13:15:58;13.90;99.90
21207;DHT22;10761;48.532;8.026;2023-02-18T13:18:32;14.00;99.90
21207;DHT22;10761;48.532;8.026;2023-02-18T13:23:31;14.10;99.90
21207;DHT22;10761;48.532;8.026;2023-02-18T13:25:59;14.00;99.90
21207;DHT22;10761;48.532;8.026;2023-02-18T13:28:28;14.10;99.90
21207;DHT22;10761;48.532;8.026;2023-02-18T13:33:28;14.10;99.90
21207;DHT22;10761;48.532;8.026;2023-02-18T13:41:07;14.20;99.90
21207;DHT22;10761;48.532;8.026;2023-02-18T13:43:33;14.20;99.90
21207;DHT22;10761;48.532;8.026;2023-02-18T13:48:32;14.10;99.90
21207;DHT22;10761;48.532;8.026;2023-02-18T13:51:01;14.10;99.90
21207;DHT22;10761;48.532;8.026;2023-02-18T13:53:28;14.20;99.90
21207;DHT22;10761;48.532;8.026;2023-02-18T13:56:28;14.10;99.90
21207;DHT22;10761;48.532;8.026;2023-02-18T13:58:50;14.10;99.90
21207;DHT22;10761;48.532;8.026;2023-02-18T14:01:21;14.20;99.90
21207;DHT22;10761;48.532;8.026;2023-02-18T14:06:25;14.10;99.90
21207;DHT22;10761;48.532;8.026;2023-02-18T14:09:01;14.10;99.90
21207;DHT22;10761;48.532;8.026;2023-02-18T14:11:32;14.00;99.90
21207;DHT22;10761;48.532;8.026;2023-02-18T14:14:15;14.00;99.90
21207;DHT22;10761;48.532;8.026;2023-02-18T14:19:28;14.10;99.90
21207;DHT22;10761;48.532;8.026;2023-02-18T14:22:00;14.10;99.90
21207;DHT22;10761;48.532;8.026;2023-02-18T14:24:42;14.10;99.90
21207;DHT22;10761;48.532;8.026;2023-02-18T14:27:13;14.10;99.90
21207;DHT22;10761;48.532;8.026;2023-02-18T14:29:39;14.10;99.90
21207;DHT22;10761;48.532;8.026;2023-02-18T14:32:08;14.10;99.90
21207;DHT22;10761;48.532;8.026;2023-02-18T14:37:17;14.10;99.90
21207;DHT22;10761;48.532;8.026;2023-02-18T14:42:46;14.00;99.90
21207;DHT22;10761;48.532;8.026;2023-02-18T14:48:28;14.00;99.90
21207;DHT22;10761;48.532;8.026;2023-02-18T14:50:32;14.00;99.90
21207;DHT22;10761;48.532;8.026;2023-02-18T14:53:01;14.00;99.90
21207;DHT22;10761;48.532;8.026;2023-02-18T14:57:55;13.90;99.90
21207;DHT22;10761;48.532;8.026;2023-02-18T15:00:26;13.70;99.90
21207;DHT22;10761;48.532;8.026;2023-02-18T15:02:57;13.70;99.90
21207;DHT22;10761;48.532;8.026;2023-02-18T15:05:24;13.70;99.90
21207;DHT22;10761;48.532;8.026;2023-02-18T15:08:35;13.70;99.90
21207;DHT22;10761;48.532;8.026;2023-02-18T15:10:47;13.60;99.90
21207;DHT22;10761;48.532;8.026;2023-02-18T15:13:16;13.50;99.90
21207;DHT22;10761;48.532;8.026;2023-02-18T15:15:42;13.50;99.90
21207;DHT22;10761;48.532;8.026;2023-02-18T15:18:15;13.50;99.90
21207;DHT22;10761;48.532;8.026;2023-02-18T15:20:41;13.60;99.90
21207;DHT22;10761;48.532;8.026;2023-02-18T15:23:09;13.60;99.90
21207;DHT22;10761;48.532;8.026;2023-02-18T15:25:36;13.70;99.90
21207;DHT22;10761;48.532;8.026;2023-02-18T15:28:01;13.80;99.90
21207;DHT22;10761;48.532;8.026;2023-02-18T15:30:28;13.80;99.90
21207;DHT22;10761;48.532;8.026;2023-02-18T15:32:55;13.80;99.90
21207;DHT22;10761;48.532;8.026;2023-02-18T15:35:22;13.80;99.90
21207;DHT22;10761;48.532;8.026;2023-02-18T15:37:51;13.80;99.90
21207;DHT22;10761;48.532;8.026;2023-02-18T15:40:17;13.60;99.90
21207;DHT22;10761;48.532;8.026;2023-02-18T15:42:48;13.60;99.90
21207;DHT22;10761;48.532;8.026;2023-02-18T15:45:21;13.60;99.90
21207;DHT22;10761;48.532;8.026;2023-02-18T15:47:49;13.60;99.90
21207;DHT22;10761;48.532;8.026;2023-02-18T15:50:23;13.60;99.90
21207;DHT22;10761;48.532;8.026;2023-02-18T15:52:49;13.60;99.90
21207;DHT22;10761;48.532;8.026;2023-02-18T15:57:47;13.70;99.90
21207;DHT22;10761;48.532;8.026;2023-02-18T16:00:20;13.80;99.90
21207;DHT22;10761;48.532;8.026;2023-02-18T16:02:51;13.80;99.90
21207;DHT22;10761;48.532;8.026;2023-02-18T16:05:26;13.80;99.90
21207;DHT22;10761;48.532;8.026;2023-02-18T16:07:52;13.80;99.90
21207;DHT22;10761;48.532;8.026;2023-02-18T16:10:37;13.80;99.90
21207;DHT22;10761;48.532;8.026;2023-02-18T16:13:05;13.70;99.90
21207;DHT22;10761;48.532;8.026;2023-02-18T16:15:40;13.60;99.90
21207;DHT22;10761;48.532;8.026;2023-02-18T16:18:18;13.50;99.90
21207;DHT22;10761;48.532;8.026;2023-02-18T16:20:51;13.40;99.90
21207;DHT22;10761;48.532;8.026;2023-02-18T16:23:17;13.40;99.90
21207;DHT22;10761;48.532;8.026;2023-02-18T16:25:44;13.40;99.90
21207;DHT22;10761;48.532;8.026;2023-02-18T16:28:14;13.30;99.90
21207;DHT22;10761;48.532;8.026;2023-02-18T16:30:40;13.30;99.90
21207;DHT22;10761;48.532;8.026;2023-02-18T16:33:06;13.20;99.90
21207;DHT22;10761;48.532;8.026;2023-02-18T16:35:32;13.20;99.90
21207;DHT22;10761;48.532;8.026;2023-02-18T16:37:57;13.10;99.90
21207;DHT22;10761;48.532;8.026;2023-02-18T16:42:55;13.00;99.90
21207;DHT22;10761;48.532;8.026;2023-02-18T16:45:23;12.90;99.90
21207;DHT22;10761;48.532;8.026;2023-02-18T16:47:50;12.80;99.90
21207;DHT22;10761;48.532;8.026;2023-02-18T16:50:19;12.70;99.90
21207;DHT22;10761;48.532;8.026;2023-02-18T16:52:45;12.70;99.90
21207;DHT22;10761;48.532;8.026;2023-02-18T16:55:18;12.60;99.90
21207;DHT22;10761;48.532;8.026;2023-02-18T16:57:44;12.60;99.90
21207;DHT22;10761;48.532;8.026;2023-02-18T17:00:09;12.50;99.90
21207;DHT22;10761;48.532;8.026;2023-02-18T17:02:35;12.50;99.90
21207;DHT22;10761;48.532;8.026;2023-02-18T17:05:01;12.40;99.90
21207;DHT22;10761;48.532;8.026;2023-02-18T17:07:27;12.40;99.90
21207;DHT22;10761;48.532;8.026;2023-02-18T17:09:52;12.40;99.90
21207;DHT22;10761;48.532;8.026;2023-02-18T17:12:18;12.40;99.90
21207;DHT22;10761;48.532;8.026;2023-02-18T17:14:43;12.30;99.90
21207;DHT22;10761;48.532;8.026;2023-02-18T17:17:11;12.40;99.90
21207;DHT22;10761;48.532;8.026;2023-02-18T17:19:38;12.30;99.90
21207;DHT22;10761;48.532;8.026;2023-02-18T17:22:03;12.20;99.90
21207;DHT22;10761;48.532;8.026;2023-02-18T17:24:29;12.20;99.90
21207;DHT22;10761;48.532;8.026;2023-02-18T17:26:54;12.20;99.90
21207;DHT22;10761;48.532;8.026;2023-02-18T17:29:20;12.10;99.90